Time;durP1;ratioP1;P1;durP2;ratioP2;P2;SDS_P1;SDS_P2;PMS_P1;PMS_P2;Temp;Humidity;BMP_temperature;BMP_pressure;BME280_temperature;BME280_humidity;BME280_pressure;Samples;Min_cycle;Max_cycle;Signal;HPM_P1;HPM_P2
2022/01/25 00:28:27;;;;;;;20.93;14.20;;;-1.70;99.90;;;;;;5053770;28;20266;-75
2022/01/25 00:33:41;;;;;;;22.53;14.47;;;-1.60;99.90;;;;;;5054025;28;20214;-76
2022/01/25 00:36:09;;;;;;;24.53;15.27;;;-1.70;99.90;;;;;;5052900;28;20245;-76
2022/01/25 00:38:35;;;;;;;22.37;15.13;;;-1.80;99.90;;;;;;5053521;28;20217;-75
2022/01/25 00:41:00;;;;;;;21.77;15.07;;;-1.70;99.90;;;;;;5053438;28;20183;-76
2022/01/25 00:43:27;;;;;;;23.03;14.40;;;-1.80;99.90;;;;;;5053783;28;20261;-76
2022/01/25 00:45:57;;;;;;;21.60;14.87;;;-1.80;99.90;;;;;;5052877;28;20215;-76
2022/01/25 00:48:42;;;;;;;23.97;15.07;;;-1.80;99.90;;;;;;5053542;28;20187;-76
2022/01/25 00:53:56;;;;;;;24.03;15.40;;;-1.80;99.90;;;;;;5053462;28;20170;-76
2022/01/25 00:56:27;;;;;;;22.00;14.77;;;-1.80;99.90;;;;;;5053074;28;20198;-76
2022/01/25 00:58:53;;;;;;;22.93;14.67;;;-1.90;99.90;;;;;;5053307;28;20175;-76
2022/01/25 01:01:20;;;;;;;22.00;14.73;;;-1.90;99.90;;;;;;5035158;28;20698;-76
2022/01/25 01:03:46;;;;;;;21.53;14.57;;;-1.90;99.90;;;;;;5053055;28;20175;-77
2022/01/25 01:06:12;;;;;;;26.07;15.27;;;-1.90;99.90;;;;;;5052606;28;20222;-76
2022/01/25 01:08:38;;;;;;;24.03;16.10;;;-1.80;99.90;;;;;;5053239;28;20228;-76
2022/01/25 01:11:05;;;;;;;25.20;16.77;;;-1.80;99.90;;;;;;5053055;28;20213;-76
2022/01/25 01:13:51;;;;;;;26.03;16.53;;;-1.80;99.90;;;;;;5053097;28;20557;-77
2022/01/25 01:30:12;;;;;;;19.00;14.20;;;-1.90;99.90;;;;;;5052824;28;20718;-77
2022/01/25 01:43:34;;;;;;;19.50;12.93;;;-2.10;99.90;;;;;;5051419;28;20215;-76
2022/01/25 01:48:35;;;;;;;20.93;12.67;;;-2.10;99.90;;;;;;5052107;28;20270;-76
2022/01/25 01:51:15;;;;;;;18.33;12.47;;;-2.10;99.90;;;;;;5052392;28;20263;-77
2022/01/25 01:53:42;;;;;;;22.43;13.80;;;-2.20;99.90;;;;;;5034381;28;20177;-77
2022/01/25 01:56:08;;;;;;;18.87;12.80;;;-2.20;99.90;;;;;;5051659;28;20610;-77
2022/01/25 01:58:38;;;;;;;23.67;15.10;;;-2.20;99.90;;;;;;5052429;28;20198;-77
2022/01/25 02:01:07;;;;;;;27.37;15.33;;;-2.00;99.90;;;;;;5051895;28;20204;-77
2022/01/25 02:03:33;;;;;;;23.73;15.20;;;-1.90;99.90;;;;;;5052455;28;20179;-77
2022/01/25 02:05:59;;;;;;;26.10;16.67;;;-1.80;99.90;;;;;;5051682;28;20219;-77
2022/01/25 02:08:25;;;;;;;23.80;15.27;;;-1.60;99.90;;;;;;5052015;28;20174;-76
2022/01/25 02:10:51;;;;;;;23.37;15.43;;;-1.70;99.90;;;;;;5052230;28;20175;-76
2022/01/25 02:13:17;;;;;;;22.33;14.73;;;-1.80;99.90;;;;;;5052109;28;20171;-77
2022/01/25 02:15:47;;;;;;;22.00;14.30;;;-1.90;99.90;;;;;;5051429;28;20195;-77
2022/01/25 02:23:44;;;;;;;23.50;14.60;;;-2.10;99.90;;;;;;5051597;28;20612;-77
2022/01/25 02:26:11;;;;;;;23.53;14.60;;;-2.10;99.90;;;;;;5050987;28;20219;-77
2022/01/25 02:28:39;;;;;;;21.20;14.83;;;-2.10;99.90;;;;;;5051660;28;20171;-77
2022/01/25 02:31:07;;;;;;;21.87;15.10;;;-2.10;99.90;;;;;;5051678;28;20228;-78
2022/01/25 02:33:33;;;;;;;24.77;16.00;;;-2.00;99.90;;;;;;5033503;28;20171;-77
2022/01/25 02:36:00;;;;;;;24.53;16.30;;;-1.90;99.90;;;;;;5051251;28;20201;-77
2022/01/25 02:38:29;;;;;;;25.00;16.17;;;-1.90;99.90;;;;;;5051707;28;20245;-77
2022/01/25 02:40:56;;;;;;;22.60;15.57;;;-1.90;99.90;;;;;;5051511;28;20211;-77
2022/01/25 02:43:22;;;;;;;24.20;15.67;;;-1.90;99.90;;;;;;5051398;28;20174;-76
2022/01/25 02:46:20;;;;;;;29.97;17.00;;;-2.00;99.90;;;;;;5050639;28;20296;-76
2022/01/25 02:49:05;;;;;;;26.77;16.90;;;-1.90;99.90;;;;;;5051507;28;20611;-77
2022/01/25 02:51:41;;;;;;;24.73;17.20;;;-1.90;99.90;;;;;;5051208;28;20277;-77
2022/01/25 02:54:08;;;;;;;26.10;16.57;;;-1.90;99.90;;;;;;5050929;28;20198;-77
2022/01/25 02:56:36;;;;;;;25.33;17.00;;;-1.90;99.90;;;;;;5050668;28;20230;-77
2022/01/25 02:59:03;;;;;;;20.23;14.70;;;-2.00;99.90;;;;;;5051298;28;20175;-77
2022/01/25 03:01:29;;;;;;;23.43;14.50;;;-2.30;99.90;;;;;;5051339;28;20264;-77
2022/01/25 03:03:55;;;;;;;23.17;13.57;;;-2.30;99.90;;;;;;5051040;28;20225;-76
2022/01/25 03:06:22;;;;;;;20.87;13.60;;;-2.40;99.90;;;;;;5050460;28;20221;-76
2022/01/25 03:08:49;;;;;;;21.43;14.87;;;-2.40;99.90;;;;;;5050946;28;20258;-77
2022/01/25 03:11:17;;;;;;;25.27;15.43;;;-2.50;99.90;;;;;;5051403;28;20186;-76
2022/01/25 03:13:54;;;;;;;25.50;15.20;;;-2.50;99.90;;;;;;5051154;28;20261;-77
2022/01/25 03:16:35;;;;;;;21.43;15.40;;;-2.40;99.90;;;;;;5050409;28;20284;-76
2022/01/25 03:19:04;;;;;;;24.40;14.43;;;-2.40;99.90;;;;;;5051191;28;20206;-77
2022/01/25 03:23:56;;;;;;;21.20;14.40;;;-2.40;99.90;;;;;;5050858;28;20751;-76
2022/01/25 03:26:24;;;;;;;21.13;14.10;;;-2.40;99.90;;;;;;5050452;28;20223;-76
2022/01/25 03:28:50;;;;;;;23.00;14.17;;;-2.50;99.90;;;;;;5050776;28;20179;-77
2022/01/25 03:31:16;;;;;;;24.27;14.20;;;-2.50;99.90;;;;;;5050724;28;20198;-77
2022/01/25 03:33:42;;;;;;;23.27;14.60;;;-2.50;99.90;;;;;;5051000;28;20183;-77
2022/01/25 03:36:10;;;;;;;21.43;14.10;;;-2.50;99.90;;;;;;5050102;28;20199;-77
2022/01/25 03:38:40;;;;;;;25.60;15.63;;;-2.50;99.90;;;;;;5050946;28;20601;-77
2022/01/25 03:41:08;;;;;;;21.03;14.13;;;-2.50;99.90;;;;;;5050765;28;20662;-76
2022/01/25 03:43:35;;;;;;;21.80;14.07;;;-2.50;99.90;;;;;;5050654;28;20194;-77
2022/01/25 03:46:08;;;;;;;25.10;14.87;;;-2.40;99.90;;;;;;5050104;28;20657;-76
2022/01/25 03:51:00;;;;;;;20.67;14.53;;;-2.50;99.90;;;;;;5050834;28;20194;-76
2022/01/25 03:53:26;;;;;;;21.67;14.10;;;-2.60;99.90;;;;;;5050794;28;20175;-76
2022/01/25 03:55:51;;;;;;;23.53;13.90;;;-2.60;99.90;;;;;;5050095;28;20229;-76
2022/01/25 03:58:17;;;;;;;22.63;14.30;;;-2.60;99.90;;;;;;5050489;28;20639;-76
2022/01/25 04:00:44;;;;;;;19.13;13.23;;;-2.70;99.90;;;;;;5050488;28;20182;-76
2022/01/25 04:03:16;;;;;;;21.50;13.30;;;-2.70;99.90;;;;;;5050319;28;20644;-77
2022/01/25 04:08:10;;;;;;;24.60;14.60;;;-2.80;99.90;;;;;;5053887;28;20538;-77
2022/01/25 04:10:35;;;;;;;22.33;14.03;;;-2.70;99.90;;;;;;5054048;28;20191;-77
2022/01/25 04:13:01;;;;;;;24.73;14.63;;;-2.70;99.90;;;;;;5054126;28;20183;-77
2022/01/25 04:15:27;;;;;;;22.40;15.30;;;-2.60;99.90;;;;;;5053288;28;20199;-77
2022/01/25 04:18:02;;;;;;;25.60;15.17;;;-2.70;99.90;;;;;;5054278;28;20179;-77
2022/01/25 04:20:34;;;;;;;20.70;14.40;;;-2.60;99.90;;;;;;5054067;28;20183;-77
2022/01/25 04:25:44;;;;;;;22.20;14.83;;;-2.60;99.90;;;;;;5056633;28;20214;-80
2022/01/25 04:28:09;;;;;;;25.37;15.57;;;-2.70;99.90;;;;;;5055755;28;20179;-79
2022/01/25 04:30:35;;;;;;;23.97;14.33;;;-2.80;99.90;;;;;;5049677;28;20278;-78
2022/01/25 04:33:05;;;;;;;22.10;14.50;;;-2.70;99.90;;;;;;5064200;28;20183;-78
2022/01/25 04:49:12;;;;;;;24.13;15.30;;;-2.80;99.90;;;;;;5054055;28;20194;-78
2022/01/25 04:51:55;;;;;;;21.17;14.53;;;-2.80;99.90;;;;;;5053943;28;20179;-78
2022/01/25 04:55:19;;;;;;;21.03;14.00;;;-2.80;99.90;;;;;;5053526;28;20245;-78
2022/01/25 05:02:46;;;;;;;25.33;14.77;;;-2.90;99.90;;;;;;5053784;28;20171;-77
2022/01/25 05:05:10;;;;;;;25.60;14.50;;;-2.90;99.90;;;;;;5052425;28;20234;-78
2022/01/25 05:07:53;;;;;;;19.67;13.27;;;-2.90;99.90;;;;;;5053572;28;20213;-77
2022/01/25 05:10:19;;;;;;;23.03;13.43;;;-2.90;99.90;;;;;;5053724;28;20254;-77
2022/01/25 05:13:11;;;;;;;24.03;13.53;;;-2.90;99.90;;;;;;5053718;28;20270;-77
2022/01/25 05:16:00;;;;;;;21.57;14.90;;;-3.00;99.90;;;;;;5051655;28;20294;-78
2022/01/25 05:18:24;;;;;;;20.70;13.93;;;-3.10;99.90;;;;;;5053199;28;20190;-78
2022/01/25 05:23:34;;;;;;;19.23;13.10;;;-3.10;99.90;;;;;;5053225;28;20197;-77
2022/01/25 05:26:01;;;;;;;27.53;15.27;;;-3.00;99.90;;;;;;5052544;28;20505;-78
2022/01/25 05:28:26;;;;;;;24.20;15.57;;;-3.00;99.90;;;;;;5035374;28;20175;-77
2022/01/25 05:30:52;;;;;;;20.40;13.90;;;-3.00;99.90;;;;;;5053286;28;20183;-78
2022/01/25 05:33:17;;;;;;;21.50;13.93;;;-2.90;99.90;;;;;;5053147;28;20552;-75
2022/01/25 05:35:43;;;;;;;24.13;15.63;;;-3.00;99.90;;;;;;5052291;28;20205;-78
2022/01/25 05:38:08;;;;;;;30.00;14.57;;;-3.00;99.90;;;;;;5053249;28;20182;-78
2022/01/25 05:40:46;;;;;;;21.90;13.83;;;-3.10;99.90;;;;;;5053160;28;20178;-75
2022/01/25 05:46:00;;;;;;;24.67;14.40;;;-3.00;99.90;;;;;;5052409;28;20214;-75
2022/01/25 05:48:27;;;;;;;22.87;13.77;;;-3.10;99.90;;;;;;5052887;28;20217;-76
2022/01/25 05:50:53;;;;;;;25.13;13.33;;;-3.10;99.90;;;;;;5052802;28;20187;-75
2022/01/25 05:53:20;;;;;;;25.00;14.83;;;-3.10;99.90;;;;;;5052675;28;20182;-75
2022/01/25 05:55:46;;;;;;;20.20;13.60;;;-3.10;99.90;;;;;;5052160;28;20294;-76
2022/01/25 05:58:12;;;;;;;24.47;13.70;;;-3.20;99.90;;;;;;5052759;28;20285;-75
2022/01/25 06:00:38;;;;;;;23.50;13.53;;;-3.20;99.90;;;;;;5053414;28;20214;-75
2022/01/25 06:03:05;;;;;;;23.60;14.33;;;-3.20;99.90;;;;;;5053279;28;20179;-77
2022/01/25 06:05:32;;;;;;;21.57;13.60;;;-3.30;99.90;;;;;;5052165;28;20249;-78
2022/01/25 06:07:57;;;;;;;24.80;15.60;;;-3.20;99.90;;;;;;5052339;28;20175;-78
2022/01/25 06:10:23;;;;;;;25.97;15.17;;;-3.20;99.90;;;;;;5052499;28;20723;-78
2022/01/25 06:12:48;;;;;;;27.50;15.07;;;-3.20;99.90;;;;;;5052577;28;20660;-78
2022/01/25 06:15:14;;;;;;;31.03;15.47;;;-3.20;99.90;;;;;;5052533;28;20203;-79
2022/01/25 06:17:40;;;;;;;24.93;17.27;;;-3.20;99.90;;;;;;5051544;28;20186;-78
2022/01/25 06:20:07;;;;;;;21.93;14.40;;;-3.20;99.90;;;;;;5052241;28;20270;-77
2022/01/25 06:22:33;;;;;;;31.77;15.27;;;-3.20;99.90;;;;;;5051790;28;20290;-77
2022/01/25 06:24:58;;;;;;;22.73;14.93;;;-3.20;99.90;;;;;;5051698;28;20210;-75
2022/01/25 06:27:24;;;;;;;24.40;13.50;;;-3.30;99.90;;;;;;5051527;28;20682;-72
2022/01/25 06:29:50;;;;;;;21.00;13.70;;;-3.40;99.90;;;;;;5050509;28;20175;-74
2022/01/25 06:32:18;;;;;;;21.73;14.47;;;-3.30;99.90;;;;;;5051396;28;20190;-73
2022/01/25 06:34:44;;;;;;;25.40;14.27;;;-3.20;99.90;;;;;;5048441;28;20210;-77
2022/01/25 06:37:11;;;;;;;23.87;14.67;;;-3.30;99.90;;;;;;5064054;28;20182;-76
2022/01/25 06:39:37;;;;;;;23.33;13.90;;;-3.40;99.90;;;;;;5072394;28;20211;-77
2022/01/25 06:42:03;;;;;;;23.33;13.77;;;-3.40;99.90;;;;;;5072332;28;20319;-77
2022/01/25 06:44:29;;;;;;;24.50;13.73;;;-3.40;99.90;;;;;;5071484;28;20261;-76
2022/01/25 06:46:54;;;;;;;25.07;13.10;;;-3.40;99.90;;;;;;5070579;28;20759;-77
2022/01/25 06:49:20;;;;;;;19.23;12.90;;;-3.50;99.90;;;;;;5071702;28;20208;-77
2022/01/25 06:51:46;;;;;;;21.07;13.30;;;-3.50;99.90;;;;;;5071824;28;20523;-77
2022/01/25 06:54:11;;;;;;;21.73;14.57;;;-3.50;99.90;;;;;;5071581;28;20173;-77
2022/01/25 06:56:37;;;;;;;26.37;15.07;;;-3.50;99.90;;;;;;5057550;28;20203;-78
2022/01/25 06:59:02;;;;;;;21.93;14.33;;;-3.60;99.90;;;;;;5051949;28;20174;-77
2022/01/25 07:01:30;;;;;;;23.10;15.07;;;-3.50;99.90;;;;;;5051881;28;20175;-77
2022/01/25 07:03:55;;;;;;;21.30;14.17;;;-3.50;99.90;;;;;;5051797;28;20228;-77
2022/01/25 07:06:21;;;;;;;25.20;14.60;;;-3.30;99.90;;;;;;5051162;28;20215;-77
2022/01/25 07:08:46;;;;;;;26.67;15.27;;;-3.30;99.90;;;;;;5052009;28;20167;-77
2022/01/25 07:11:13;;;;;;;23.43;15.03;;;-3.10;99.90;;;;;;5052533;28;20704;-77
2022/01/25 07:13:39;;;;;;;26.97;14.43;;;-3.10;99.90;;;;;;5052149;28;20309;-77
2022/01/25 07:16:05;;;;;;;25.40;14.87;;;-3.00;99.90;;;;;;5051346;28;20230;-76
2022/01/25 07:18:30;;;;;;;24.90;14.67;;;-2.90;99.90;;;;;;5051545;28;20250;-76
2022/01/25 07:20:56;;;;;;;26.17;15.63;;;-2.90;99.90;;;;;;5051191;28;20635;-76
2022/01/25 07:23:21;;;;;;;21.17;15.13;;;-2.80;99.90;;;;;;5050637;28;20282;-76
2022/01/25 07:25:47;;;;;;;21.90;14.03;;;-2.70;99.90;;;;;;5050938;28;20265;-76
2022/01/25 07:28:13;;;;;;;23.20;13.73;;;-2.70;99.90;;;;;;5051063;28;20179;-76
2022/01/25 07:30:38;;;;;;;24.50;15.33;;;-2.30;99.90;;;;;;5051028;28;20211;-76
2022/01/25 07:33:05;;;;;;;23.83;15.67;;;-2.00;1.00;;;;;;5051296;28;20214;-76
2022/01/25 07:35:35;;;;;;;23.40;14.63;;;-1.50;1.00;;;;;;5050438;28;20270;-76
2022/01/25 07:38:02;;;;;;;27.97;14.57;;;-0.60;1.00;;;;;;5051268;28;20656;-76
2022/01/25 07:40:28;;;;;;;22.20;13.73;;;0.10;1.00;;;;;;5052627;28;20186;-76
2022/01/25 07:42:54;;;;;;;23.80;14.10;;;0.70;1.00;;;;;;5055280;28;20182;-76
2022/01/25 07:45:21;;;;;;;21.10;14.60;;;1.10;1.00;;;;;;5054460;28;20264;-76
2022/01/25 07:47:46;;;;;;;22.40;14.53;;;1.50;99.90;;;;;;5055283;28;20191;-76
2022/01/25 07:50:12;;;;;;;22.57;15.50;;;2.00;1.00;;;;;;5055009;28;20175;-76
2022/01/25 07:52:38;;;;;;;22.13;13.40;;;2.40;1.00;;;;;;5055265;28;20198;-75
2022/01/25 07:55:05;;;;;;;21.47;13.70;;;2.60;99.90;;;;;;5037410;28;20191;-78
2022/01/25 07:57:30;;;;;;;19.80;14.20;;;2.50;1.00;;;;;;5057386;28;20164;-78
2022/01/25 07:59:57;;;;;;;18.20;13.67;;;2.70;1.00;;;;;;5055526;28;20183;-75
2022/01/25 08:02:23;;;;;;;18.23;13.30;;;2.70;1.00;;;;;;5054871;28;20183;-76
2022/01/25 08:04:48;;;;;;;17.50;13.63;;;3.20;1.00;;;;;;5056246;28;20551;-77
2022/01/25 08:07:14;;;;;;;18.03;13.60;;;3.20;1.00;;;;;;5054658;28;20218;-76
2022/01/25 08:09:39;;;;;;;17.70;14.13;;;3.40;99.90;;;;;;5054750;28;20590;-77
2022/01/25 08:12:05;;;;;;;18.27;14.40;;;3.90;99.90;;;;;;5054757;28;20592;-76
2022/01/25 08:14:31;;;;;;;17.53;12.90;;;4.20;99.90;;;;;;5054107;28;20241;-76
2022/01/25 08:16:57;;;;;;;19.47;14.70;;;4.50;99.90;;;;;;5054522;28;20203;-76
2022/01/25 08:19:23;;;;;;;16.87;12.83;;;4.40;99.90;;;;;;5054381;28;20628;-76
2022/01/25 08:21:49;;;;;;;18.13;13.80;;;4.40;99.90;;;;;;5054561;28;20187;-76
2022/01/25 08:24:18;;;;;;;17.80;13.43;;;4.50;99.90;;;;;;5054076;28;20647;-76
2022/01/25 08:26:44;;;;;;;20.07;14.23;;;4.90;99.90;;;;;;5054088;28;20246;-76
2022/01/25 08:29:10;;;;;;;16.13;13.30;;;5.80;62.00;;;;;;5054657;28;20174;-76
2022/01/25 08:31:36;;;;;;;16.03;13.30;;;6.30;1.00;;;;;;5055397;28;20179;-76
2022/01/25 08:34:02;;;;;;;17.30;13.13;;;5.80;1.00;;;;;;5054185;28;20600;-76
2022/01/25 08:36:28;;;;;;;15.00;12.70;;;5.30;1.00;;;;;;5054035;28;20198;-76
2022/01/25 08:38:54;;;;;;;16.03;13.20;;;5.50;1.00;;;;;;5054502;28;20187;-76
2022/01/25 08:41:21;;;;;;;16.87;12.83;;;6.30;1.00;;;;;;5054420;28;20167;-77
2022/01/25 08:43:47;;;;;;;16.60;13.60;;;6.50;1.00;;;;;;5054286;28;20532;-76
2022/01/25 08:46:13;;;;;;;15.17;13.57;;;6.50;1.00;;;;;;5053936;28;20305;-76
2022/01/25 08:48:39;;;;;;;20.40;14.10;;;7.20;1.00;;;;;;5053966;28;20175;-76
2022/01/25 08:51:05;;;;;;;16.20;14.30;;;7.20;1.00;;;;;;5053562;28;20666;-76
2022/01/25 08:53:31;;;;;;;16.87;13.90;;;7.20;1.00;;;;;;5053909;28;20167;-76
2022/01/25 08:55:57;;;;;;;15.60;14.00;;;7.50;1.00;;;;;;5053126;28;20202;-76
2022/01/25 08:58:22;;;;;;;17.47;14.80;;;7.90;1.00;;;;;;5054222;28;20198;-76
2022/01/25 09:00:48;;;;;;;16.53;14.63;;;7.20;1.00;;;;;;5053881;28;20635;-76
2022/01/25 09:03:14;;;;;;;17.50;14.57;;;7.00;1.00;;;;;;5053651;28;20573;-76
2022/01/25 09:05:39;;;;;;;17.77;15.20;;;7.20;1.00;;;;;;5053010;28;20293;-76
2022/01/25 09:08:06;;;;;;;18.67;15.67;;;7.40;1.00;;;;;;5053213;28;20175;-75
2022/01/25 09:10:32;;;;;;;16.80;15.03;;;7.10;1.00;;;;;;5053442;28;20210;-76
2022/01/25 09:12:58;;;;;;;17.27;15.17;;;6.90;1.00;;;;;;5053441;28;20175;-76
2022/01/25 09:15:24;;;;;;;17.07;15.17;;;7.30;1.00;;;;;;5052862;28;20573;-76
2022/01/25 09:17:49;;;;;;;19.80;15.07;;;7.00;1.00;;;;;;5053742;28;20281;-77
2022/01/25 09:20:16;;;;;;;17.23;15.40;;;6.70;1.00;;;;;;5053637;28;20209;-77
2022/01/25 09:22:41;;;;;;;17.33;14.87;;;7.40;1.00;;;;;;5053232;28;20187;-77
2022/01/25 09:25:09;;;;;;;16.87;14.40;;;8.40;1.00;;;;;;5052748;28;20199;-77
2022/01/25 09:27:34;;;;;;;17.50;15.70;;;8.60;1.00;;;;;;5053134;28;20670;-77
2022/01/25 09:30:00;;;;;;;18.47;16.53;;;8.20;1.00;;;;;;5053076;28;20214;-77
2022/01/25 09:32:25;;;;;;;19.87;16.13;;;8.30;1.00;;;;;;5053319;28;20199;-76
2022/01/25 09:34:51;;;;;;;18.53;16.27;;;8.40;1.00;;;;;;5052583;28;20183;-76
2022/01/25 09:37:17;;;;;;;17.90;16.00;;;8.40;1.00;;;;;;5052941;28;20528;-76
2022/01/25 09:39:43;;;;;;;18.70;16.80;;;8.10;1.00;;;;;;5052715;28;20171;-76
2022/01/25 09:42:10;;;;;;;19.13;17.10;;;8.00;1.00;;;;;;5052946;28;20265;-76
2022/01/25 09:44:38;;;;;;;22.50;16.67;;;8.40;1.00;;;;;;5052299;28;20182;-77
2022/01/25 09:47:05;;;;;;;19.37;17.37;;;8.30;1.00;;;;;;5052757;28;20225;-76
2022/01/25 09:49:32;;;;;;;19.73;17.00;;;8.60;1.00;;;;;;5052296;28;20255;-76
2022/01/25 09:52:08;;;;;;;19.30;17.17;;;8.90;1.00;;;;;;5052768;28;20185;-77
2022/01/25 09:54:35;;;;;;;17.63;15.87;;;8.60;1.00;;;;;;5052162;28;20179;-77
2022/01/25 09:57:02;;;;;;;18.20;16.30;;;9.00;1.00;;;;;;5052652;28;20225;-76
2022/01/25 09:59:29;;;;;;;20.60;17.27;;;8.70;1.00;;;;;;5052459;28;20202;-76
2022/01/25 10:01:56;;;;;;;20.13;16.53;;;9.20;1.00;;;;;;5053565;28;20632;-76
2022/01/25 10:04:36;;;;;;;20.33;16.57;;;9.20;1.00;;;;;;5052799;28;20524;-76
2022/01/25 10:07:04;;;;;;;18.13;16.33;;;8.40;1.00;;;;;;5052025;28;20222;-76
2022/01/25 10:09:30;;;;;;;21.67;17.10;;;8.50;1.00;;;;;;5052187;28;20171;-76
2022/01/25 10:11:56;;;;;;;19.77;17.00;;;8.30;1.00;;;;;;5053522;28;20199;-76
2022/01/25 10:14:23;;;;;;;19.73;16.83;;;8.40;1.00;;;;;;5051570;28;20622;-76
2022/01/25 10:16:54;;;;;;;19.37;17.23;;;8.90;1.00;;;;;;5051862;28;20210;-77
2022/01/25 10:19:25;;;;;;;23.70;17.90;;;9.70;1.00;;;;;;5051894;28;20198;-76
2022/01/25 10:21:51;;;;;;;22.00;17.30;;;9.10;1.00;;;;;;5051757;28;20703;-76
2022/01/25 10:24:21;;;;;;;18.70;16.40;;;9.20;1.00;;;;;;5052360;28;20187;-76
2022/01/25 10:26:49;;;;;;;22.77;17.80;;;9.40;1.00;;;;;;5051804;28;20226;-77
2022/01/25 10:29:25;;;;;;;20.17;17.07;;;8.20;1.00;;;;;;5053291;28;20647;-77
2022/01/25 10:31:54;;;;;;;21.30;18.10;;;8.50;1.00;;;;;;5051804;28;20205;-76
2022/01/25 10:34:29;;;;;;;19.77;17.67;;;9.00;1.00;;;;;;5051298;28;20186;-77
2022/01/25 10:36:56;;;;;;;21.40;17.60;;;9.10;1.00;;;;;;5051537;28;20661;-76
2022/01/25 10:39:32;;;;;;;21.10;18.10;;;7.40;1.00;;;;;;5052074;28;20194;-76
2022/01/25 10:42:09;;;;;;;19.83;17.47;;;6.40;99.90;;;;;;5051972;28;20175;-76
2022/01/25 10:44:55;;;;;;;20.73;17.40;;;6.70;99.90;;;;;;5051166;28;20589;-76
2022/01/25 10:47:36;;;;;;;21.70;17.63;;;7.30;88.20;;;;;;5051344;28;20238;-76
2022/01/25 10:50:34;;;;;;;19.77;17.67;;;6.90;16.60;;;;;;5051642;28;20170;-75
2022/01/25 10:53:15;;;;;;;22.97;17.10;;;7.30;90.50;;;;;;5051648;28;20179;-76
2022/01/25 10:55:45;;;;;;;20.40;17.93;;;8.10;1.00;;;;;;5050875;28;20598;-75
2022/01/25 10:58:12;;;;;;;19.63;17.53;;;8.40;1.00;;;;;;5051451;28;20651;-76
2022/01/25 11:00:42;;;;;;;19.13;16.60;;;7.80;1.00;;;;;;5051618;28;20577;-76
2022/01/25 11:03:08;;;;;;;18.70;16.10;;;8.00;1.00;;;;;;5050960;28;20674;-75
2022/01/25 11:05:36;;;;;;;19.83;16.43;;;8.10;1.00;;;;;;5050460;28;20215;-76
2022/01/25 11:08:17;;;;;;;18.07;16.10;;;8.40;1.00;;;;;;5051163;28;20179;-75
2022/01/25 11:11:00;;;;;;;19.13;17.13;;;8.40;1.00;;;;;;5051547;28;20218;-75
2022/01/25 11:15:55;;;;;;;22.10;17.70;;;7.60;1.00;;;;;;5054542;28;20259;-76
2022/01/25 11:18:21;;;;;;;20.17;17.00;;;8.00;1.00;;;;;;5054708;28;20187;-75
2022/01/25 11:20:50;;;;;;;19.73;16.73;;;8.30;1.00;;;;;;5055315;28;20189;-75
2022/01/25 11:23:17;;;;;;;20.60;16.17;;;9.40;1.00;;;;;;5055070;28;20649;-75
2022/01/25 11:25:44;;;;;;;19.47;17.07;;;10.70;1.00;;;;;;5054636;28;20584;-76
2022/01/25 11:28:11;;;;;;;19.17;17.17;;;11.50;1.00;;;;;;5054897;28;20189;-76
2022/01/25 11:30:38;;;;;;;18.83;16.17;;;11.70;1.00;;;;;;5054126;28;20262;-77
2022/01/25 11:33:06;;;;;;;19.70;16.70;;;12.30;1.00;;;;;;5053203;28;20228;-77
2022/01/25 11:35:32;;;;;;;18.67;15.70;;;12.40;1.00;;;;;;5054789;28;20195;-76
2022/01/25 11:37:58;;;;;;;17.60;15.60;;;12.80;1.00;;;;;;5052525;28;20198;-77
2022/01/25 11:40:38;;;;;;;18.10;16.30;;;13.40;1.00;;;;;;5055350;28;20178;-76
2022/01/25 11:43:10;;;;;;;18.00;15.33;;;12.80;1.00;;;;;;5052551;28;20264;-76
2022/01/25 11:45:42;;;;;;;19.83;15.93;;;12.80;1.00;;;;;;5053741;28;20203;-77
2022/01/25 11:48:08;;;;;;;18.43;16.13;;;12.80;1.00;;;;;;5054175;28;20183;-77
2022/01/25 11:50:40;;;;;;;19.40;17.20;;;12.40;1.00;;;;;;5055413;28;20179;-76
2022/01/25 11:53:08;;;;;;;20.70;16.00;;;12.70;1.00;;;;;;5054803;28;20171;-76
2022/01/25 11:55:46;;;;;;;19.50;16.23;;;13.20;1.00;;;;;;5054038;28;20293;-76
2022/01/25 11:58:28;;;;;;;19.50;17.10;;;11.60;1.00;;;;;;5055141;28;20211;-76
2022/01/25 12:00:57;;;;;;;19.93;17.50;;;12.10;1.00;;;;;;5055124;28;20262;-74
2022/01/25 12:03:28;;;;;;;19.60;17.07;;;12.70;1.00;;;;;;5054561;28;20167;-75
2022/01/25 12:06:13;;;;;;;38.77;31.03;;;12.80;1.00;;;;;;5054121;28;20217;-78
2022/01/25 12:11:40;;;;;;;21.37;17.27;;;12.30;1.00;;;;;;5054484;28;20167;-75
2022/01/25 12:14:49;;;;;;;28.27;18.90;;;12.10;1.00;;;;;;5054416;28;20175;-75
2022/01/25 12:17:23;;;;;;;20.60;17.57;;;12.90;1.00;;;;;;5054341;28;20190;-77
2022/01/25 12:19:59;;;;;;;26.13;17.93;;;13.90;1.00;;;;;;5054323;28;20206;-76
2022/01/25 12:25:24;;;;;;;22.50;18.50;;;14.30;1.00;;;;;;5053679;28;20180;-76
2022/01/25 12:28:06;;;;;;;20.30;18.13;;;13.60;1.00;;;;;;5053248;28;20612;-77
2022/01/25 12:30:38;;;;;;;22.00;17.97;;;14.20;1.00;;;;;;5054089;28;20258;-76
2022/01/25 12:33:08;;;;;;;23.70;19.10;;;14.10;1.00;;;;;;5053958;28;20258;-76
2022/01/25 12:35:42;;;;;;;23.73;18.90;;;14.40;1.00;;;;;;5053004;28;20191;-76
2022/01/25 12:38:51;;;;;;;22.43;18.33;;;14.50;1.00;;;;;;5053968;28;20167;-76
2022/01/25 12:41:25;;;;;;;25.77;19.40;;;14.40;1.00;;;;;;4956320;28;20180;-76
2022/01/25 12:43:56;;;;;;;27.43;20.77;;;14.60;1.00;;;;;;4972480;28;20173;-76
2022/01/25 12:46:22;;;;;;;28.27;20.27;;;14.40;1.00;;;;;;5019966;28;20230;-75
2022/01/25 12:48:49;;;;;;;24.63;20.03;;;14.00;1.00;;;;;;5053921;28;20167;-76
2022/01/25 12:51:18;;;;;;;24.20;19.87;;;14.00;1.00;;;;;;5053707;28;20180;-76
2022/01/25 12:53:46;;;;;;;27.37;21.43;;;13.80;1.00;;;;;;5053661;28;20194;-76
2022/01/25 12:56:19;;;;;;;25.90;20.83;;;13.70;1.00;;;;;;5052778;28;20274;-76
2022/01/25 12:58:50;;;;;;;24.70;20.50;;;13.30;1.00;;;;;;5053747;28;20222;-75
2022/01/25 13:01:20;;;;;;;26.73;20.97;;;12.90;1.00;;;;;;5053638;28;20240;-76
2022/01/25 13:03:49;;;;;;;25.40;20.63;;;12.50;1.00;;;;;;5053959;28;20171;-75
2022/01/25 13:06:16;;;;;;;24.97;20.37;;;12.60;1.00;;;;;;5034694;28;20221;-76
2022/01/25 13:08:58;;;;;;;26.27;21.37;;;12.80;1.00;;;;;;5053246;28;20236;-76
2022/01/25 13:14:34;;;;;;;26.93;21.03;;;12.80;1.00;;;;;;5053385;28;20237;-76
2022/01/25 13:17:12;;;;;;;23.37;20.20;;;13.20;1.00;;;;;;5053145;28;20191;-76
2022/01/25 13:19:45;;;;;;;27.50;21.80;;;13.30;1.00;;;;;;5053284;28;20179;-76
2022/01/25 13:22:16;;;;;;;29.23;21.60;;;12.40;1.00;;;;;;5053796;28;20217;-76
2022/01/25 13:25:12;;;;;;;26.00;20.60;;;11.40;1.00;;;;;;5051989;28;20186;-76
2022/01/25 13:27:52;;;;;;;25.63;20.90;;;12.10;1.00;;;;;;5050320;28;20206;-75
2022/01/25 13:30:48;;;;;;;29.77;21.03;;;11.70;1.00;;;;;;5049401;28;20182;-75
2022/01/25 13:33:20;;;;;;;30.33;21.87;;;11.10;1.00;;;;;;5052034;28;20203;-75
2022/01/25 13:35:50;;;;;;;27.43;20.90;;;11.70;1.00;;;;;;5050353;28;20638;-74
2022/01/25 13:38:20;;;;;;;25.70;21.13;;;11.20;1.00;;;;;;5051828;28;20667;-75
2022/01/25 13:46:40;;;;;;;28.47;21.97;;;12.10;1.00;;;;;;5049220;28;20618;-75
2022/01/25 13:49:13;;;;;;;27.83;21.70;;;11.30;1.00;;;;;;5049900;28;20183;-76
2022/01/25 13:51:52;;;;;;;28.63;21.97;;;11.90;1.00;;;;;;5051928;28;20186;-75
2022/01/25 13:54:21;;;;;;;28.33;21.53;;;12.00;1.00;;;;;;5052222;28;20167;-76
2022/01/25 13:56:47;;;;;;;27.20;20.63;;;12.60;1.00;;;;;;5052151;28;20202;-76
2022/01/25 13:59:14;;;;;;;25.03;20.40;;;13.10;1.00;;;;;;5052841;28;20171;-76
2022/01/25 14:01:41;;;;;;;32.07;23.83;;;12.90;1.00;;;;;;5052672;28;20175;-76
2022/01/25 14:04:16;;;;;;;26.93;21.03;;;12.50;1.00;;;;;;5054482;28;20201;-77
2022/01/25 14:06:53;;;;;;;25.87;20.70;;;12.10;1.00;;;;;;5051697;28;20242;-75
2022/01/25 14:09:29;;;;;;;30.17;20.90;;;12.50;1.00;;;;;;5051514;28;20174;-76
2022/01/25 14:25:35;;;;;;;27.33;21.03;;;11.40;1.00;;;;;;5051534;28;20391;-76
2022/01/25 14:28:05;;;;;;;30.93;22.00;;;10.90;1.00;;;;;;5051593;28;20202;-77
2022/01/25 14:30:33;;;;;;;30.83;24.45;;;9.60;1.00;;;;;;5050578;28;20773;-75
2022/01/25 14:33:10;;;;;;;31.87;23.67;;;8.70;1.00;;;;;;5051825;28;20175;-75
2022/01/25 14:35:51;;;;;;;37.73;23.70;;;7.90;99.90;;;;;;5051274;28;20244;-74
2022/01/25 14:38:31;;;;;;;31.90;23.20;;;7.50;2.20;;;;;;5052009;28;20171;-75
2022/01/25 14:41:07;;;;;;;29.87;22.47;;;6.90;1.00;;;;;;5052036;28;20183;-74
2022/01/25 14:43:36;;;;;;;30.67;22.80;;;6.90;99.90;;;;;;5051955;28;20204;-75
2022/01/25 14:46:06;;;;;;;36.17;24.93;;;6.80;1.00;;;;;;5050812;28;20238;-74
2022/01/25 14:48:36;;;;;;;34.43;24.30;;;7.30;1.00;;;;;;5051304;28;20174;-74
2022/01/25 14:51:04;;;;;;;40.63;26.27;;;6.70;91.20;;;;;;5051316;28;20179;-75
2022/01/25 14:53:30;;;;;;;41.10;26.80;;;6.50;1.00;;;;;;5051678;28;20171;-74
2022/01/25 14:56:00;;;;;;;41.60;26.23;;;6.50;1.00;;;;;;5051137;28;20198;-74
2022/01/25 15:01:11;;;;;;;37.70;26.00;;;6.40;1.00;;;;;;5051964;28;20659;-75